首页
METAR-TAF:

METAR-TAF

机场 :

渥太华麦克唐纳-卡蒂埃国际机场

渥太華, 安大略省, 加拿大

纬度: 45-19N, 经度: 075-40W, 海拔: 116米

当前天气观测

该预报发布于1小时和9分钟前的22:00 UTC
风速4节,风向南转南东
温度 17°C
湿度 88%
气压 1008 hPa
能見度: 16.1公里
散云层高于4700英尺
阴天层高于6000英尺
小阵雨

METAR: CYOW 232200Z 15004KT 10SM -SHRA SCT047 OVC060 17/15 A2977 RMK SC4SC4 CVCTV CLD EMBD SLP085 DENSITY ALT 900FT

时间: 19:09 (23:09 UTC)

预报

该预报发布于2小时和31分钟前的20:38 UTC
预报有效从23日的 21点(UTC)到 24日的 18点(UTC)
风速7节,风向东南
能見度: 10公里
阴天层高于5000英尺
短暂存在
从 23日的 21点(UTC)到 24日的 03点(UTC)
能見度: 10公里
小阵雨
成为
从 24日的 05点(UTC)到 24日的 07点(UTC)
风速3节,风向多变
从 24日的 0900点(UTC)
风速5节,风向
能見度: 10公里
多云层高于9000英尺

TAF: CYOW 232038Z 2321/2418 13007KT P6SM OVC050 TEMPO 2321/2403 P6SM -SHRA BECMG 2405/2407 VRB03KT FM240900 36005KT P6SM BKN090 RMK NXT FCST BY 240000Z

超过4000个机场的气象观测和天气预报(METAR&TAF报告)。

可查询的气象台以黄色和红色小点在地图上表示。

将鼠标移到小点上方,可查看气象台名称。

然后点击查看天气观测和预报。

如需切换地图:点击带黑十字的绿色按钮放大地图;点击带横线的绿色按钮缩小地图;或者点击绿色箭头查看邻近地区的地图。


METAR-TAF: